createdAt,value
2023-01-04T00:01:15.967Z,101737.44
2023-01-04T00:03:43.834Z,101732.09
2023-01-04T00:06:30.618Z,101735.63
2023-01-04T00:08:57.384Z,101731.25
2023-01-04T00:11:24.948Z,101723.31
2023-01-04T00:13:56.550Z,101723.31
2023-01-04T00:16:26.917Z,101717.09
2023-01-04T00:18:55.505Z,101704.75
2023-01-04T00:21:30.872Z,101695.91
2023-01-04T00:24:01.885Z,101681.75
2023-01-04T00:26:32.154Z,101685.19
2023-01-04T00:29:06.100Z,101686.03
2023-01-04T00:31:34.333Z,101683.31
2023-01-04T00:34:04.239Z,101681.53
2023-01-04T00:36:32.554Z,101679.72
2023-01-04T00:39:08.342Z,101671.75
2023-01-04T00:42:01.231Z,101669.97
2023-01-04T00:44:29.808Z,101662.84
2023-01-04T00:46:56.854Z,101655.81
2023-01-04T00:49:24.002Z,101651.38
2023-01-04T00:51:50.985Z,101648.72
2023-01-04T00:54:18.125Z,101639.06
2023-01-04T00:56:45.320Z,101631.09
2023-01-04T00:59:18.348Z,101621.44
2023-01-04T01:01:45.944Z,101618.75
2023-01-04T01:04:16.554Z,101618.75
2023-01-04T01:06:43.425Z,101609.03
2023-01-04T01:09:10.697Z,101607.25
2023-01-04T01:11:38.990Z,101601.97
2023-01-04T01:14:06.645Z,101599.28
2023-01-04T01:19:20.365Z,101585.16
2023-01-04T01:21:47.149Z,101584.31
2023-01-04T01:24:19.444Z,101581.69
2023-01-04T01:26:46.871Z,101585.16
2023-01-04T01:29:13.707Z,101582.53
2023-01-04T01:31:41.530Z,101577.25
2023-01-04T01:34:08.482Z,101573.78
2023-01-04T01:36:35.359Z,101579.03
2023-01-04T01:39:02.158Z,101567.59
2023-01-04T01:41:33.221Z,101559.69
2023-01-04T01:44:41.451Z,101559.63
2023-01-04T01:47:22.854Z,101552.56
2023-01-04T01:49:53.535Z,101543.75
2023-01-04T01:52:31.726Z,101542.88
2023-01-04T01:55:07.845Z,101525.28
2023-01-04T01:57:38.021Z,101527.06
2023-01-04T02:00:11.943Z,101511.22
2023-01-04T02:03:03.934Z,101508.59
2023-01-04T02:05:32.587Z,101495.41
2023-01-04T02:08:02.605Z,101491.88
2023-01-04T02:10:30.832Z,101483.09
2023-01-04T02:12:58.183Z,101474.34
2023-01-04T02:15:28.414Z,101462.06
2023-01-04T02:18:10.748Z,101469.13
2023-01-04T02:20:50.611Z,101455.06
2023-01-04T02:23:40.430Z,101460.34
2023-01-04T02:26:37.505Z,101445.41
2023-01-04T02:29:35.848Z,101436.59
2023-01-04T02:32:41.052Z,101436.66
2023-01-04T02:35:32.539Z,101430.44
2023-01-04T02:38:14.747Z,101419.06
2023-01-04T02:41:02.174Z,101409.47
2023-01-04T02:44:03.883Z,101399.03
2023-01-04T02:46:36.099Z,101390.31
2023-01-04T02:49:21.998Z,101382.50
2023-01-04T02:51:48.777Z,101365.88
2023-01-04T02:54:25.020Z,101370.41
2023-01-04T02:57:38.127Z,101357.28
2023-01-04T03:01:00.105Z,101354.72
2023-01-04T03:04:15.167Z,101344.25
2023-01-04T03:07:25.825Z,101345.19
2023-01-04T03:10:06.146Z,101338.28
2023-01-04T03:12:40.672Z,101327.81
2023-01-04T03:15:23.086Z,101322.66
2023-01-04T03:17:57.909Z,101318.28
2023-01-04T03:20:30.796Z,101313.97
2023-01-04T03:23:26.372Z,101296.47
2023-01-04T03:26:35.512Z,101295.63
2023-01-04T03:29:36.326Z,101291.28
2023-01-04T03:32:29.037Z,101279.88
2023-01-04T03:35:14.820Z,101264.91
2023-01-04T03:38:11.661Z,101261.47
2023-01-04T03:40:59.944Z,101257.09
2023-01-04T03:44:00.260Z,101252.78
2023-01-04T03:46:57.799Z,101239.63
2023-01-04T03:49:33.366Z,101226.44
2023-01-04T03:52:03.992Z,101227.38
2023-01-04T03:54:36.913Z,101230.06
2023-01-04T03:57:05.528Z,101212.44
2023-01-04T03:59:36.880Z,101206.28
2023-01-04T04:02:03.903Z,101208.03
2023-01-04T04:04:49.124Z,101199.22
2023-01-04T04:07:34.146Z,101185.97
2023-01-04T04:10:00.951Z,101180.69
2023-01-04T04:12:27.763Z,101173.66
2023-01-04T04:14:54.588Z,101167.47
2023-01-04T04:17:21.331Z,101168.38
2023-01-04T04:19:48.104Z,101156.00
2023-01-04T04:22:14.848Z,101154.22
2023-01-04T04:24:41.631Z,101148.94
2023-01-04T04:27:08.381Z,101159.50
2023-01-04T04:29:35.450Z,101143.66
2023-01-04T04:32:02.329Z,101145.44
2023-01-04T04:34:29.155Z,101140.16
2023-01-04T04:36:56.276Z,101135.75
2023-01-04T04:39:23.061Z,101129.56
2023-01-04T04:41:49.832Z,101122.50
2023-01-04T04:44:20.035Z,101126.06
2023-01-04T04:46:48.587Z,101104.00
2023-01-04T04:49:16.588Z,101104.00
2023-01-04T04:51:44.884Z,101103.16
2023-01-04T04:54:19.743Z,101090.84
2023-01-04T04:56:48.077Z,101097.88
2023-01-04T04:59:15.304Z,101084.66
2023-01-04T05:01:42.341Z,101082.03
2023-01-04T05:04:09.537Z,101077.66
2023-01-04T05:06:36.293Z,101076.78
2023-01-04T05:09:03.071Z,101061.81
2023-01-04T05:11:48.134Z,101064.47
2023-01-04T05:14:14.956Z,101058.28
2023-01-04T05:16:41.744Z,101053.91
2023-01-04T05:19:08.795Z,101038.91
2023-01-04T05:21:36.522Z,101032.78
2023-01-04T05:24:03.428Z,101029.28
2023-01-04T05:26:30.197Z,101028.41
2023-01-04T05:28:56.998Z,101011.66
2023-01-04T05:31:24.767Z,101006.41
2023-01-04T05:33:51.574Z,101003.75
2023-01-04T05:36:18.356Z,101002.03
2023-01-04T05:38:45.127Z,101000.25
2023-01-04T05:41:30.419Z,100995.88
2023-01-04T05:43:57.288Z,100987.06
2023-01-04T05:46:24.177Z,100971.22
2023-01-04T05:48:50.995Z,100968.56
2023-01-04T05:51:17.830Z,100956.22
2023-01-04T05:53:44.620Z,100945.66
2023-01-04T05:56:11.377Z,100951.81
2023-01-04T05:58:38.152Z,100943.88
2023-01-04T06:01:07.607Z,100934.22
2023-01-04T06:03:34.714Z,100932.44
2023-01-04T06:06:01.632Z,100917.47
2023-01-04T06:08:28.405Z,100920.13
2023-01-04T06:10:55.514Z,100917.50
2023-01-04T06:13:22.306Z,100909.56
2023-01-04T06:15:49.069Z,100898.97
2023-01-04T06:18:15.867Z,100898.13
2023-01-04T06:20:43.845Z,100898.09
2023-01-04T06:23:10.958Z,100894.59
2023-01-04T06:25:38.266Z,100883.16
2023-01-04T06:28:05.048Z,100880.50
2023-01-04T06:30:32.028Z,100871.69
2023-01-04T06:32:58.885Z,100867.28
2023-01-04T06:35:25.677Z,100872.56
2023-01-04T06:37:52.482Z,100857.59
2023-01-04T06:40:19.286Z,100869.94
2023-01-04T06:42:46.097Z,100863.78
2023-01-04T06:45:15.263Z,100846.16
2023-01-04T06:47:42.665Z,100836.44
2023-01-04T06:50:10.181Z,100832.94
2023-01-04T06:52:36.997Z,100839.13
2023-01-04T06:55:04.447Z,100825.00
2023-01-04T06:57:31.759Z,100824.13
2023-01-04T06:59:58.518Z,100815.31
2023-01-04T07:02:26.550Z,100814.47
2023-01-04T07:04:53.529Z,100817.97
2023-01-04T07:07:20.464Z,100818.88
2023-01-04T07:09:47.263Z,100827.69
2023-01-04T07:12:14.058Z,100830.38
2023-01-04T07:14:40.812Z,100835.66
2023-01-04T07:17:07.578Z,100828.59
2023-01-04T07:19:34.450Z,100830.38
2023-01-04T07:22:01.804Z,100827.72
2023-01-04T07:24:30.649Z,100820.66
2023-01-04T07:26:59.891Z,100818.97
2023-01-04T07:29:27.582Z,100826.00
2023-01-04T07:31:55.059Z,100824.25
2023-01-04T07:34:25.290Z,100821.59
2023-01-04T07:36:52.420Z,100809.25
2023-01-04T07:39:20.528Z,100814.56
2023-01-04T07:41:49.107Z,100815.44
2023-01-04T07:44:18.089Z,100805.72
2023-01-04T07:46:45.358Z,100813.69
2023-01-04T07:49:17.985Z,100816.31
2023-01-04T07:51:49.219Z,100803.97
2023-01-04T07:54:19.483Z,100793.38
2023-01-04T07:56:47.830Z,100793.41
2023-01-04T07:59:17.057Z,100810.16
2023-01-04T08:01:44.084Z,100815.47
2023-01-04T08:04:13.605Z,100803.97
2023-01-04T08:06:41.877Z,100799.59
2023-01-04T08:09:10.896Z,100813.69
2023-01-04T08:11:37.831Z,100814.59
2023-01-04T08:14:04.626Z,100805.75
2023-01-04T08:16:35.312Z,100827.84
2023-01-04T08:19:06.279Z,100818.13
2023-01-04T08:21:35.948Z,100819.03
2023-01-04T08:24:03.454Z,100819.91
2023-01-04T08:26:30.518Z,100819.00
2023-01-04T08:28:57.596Z,100826.09
2023-01-04T08:31:30.166Z,100825.19
2023-01-04T08:33:58.449Z,100823.41
2023-01-04T08:36:31.399Z,100819.03
2023-01-04T08:39:02.721Z,100821.66
2023-01-04T08:41:57.387Z,100818.13
2023-01-04T08:44:23.921Z,100814.59
2023-01-04T08:46:52.236Z,100806.66
2023-01-04T08:49:19.724Z,100806.66
2023-01-04T08:51:48.083Z,100804.84
2023-01-04T08:54:15.572Z,100788.94
2023-01-04T08:56:43.277Z,100787.19
2023-01-04T08:59:12.612Z,100788.97
2023-01-04T09:01:40.204Z,100793.38
2023-01-04T09:04:08.009Z,100793.38
2023-01-04T09:06:35.351Z,100790.72
2023-01-04T09:09:02.253Z,100790.72
2023-01-04T09:11:29.069Z,100783.66
2023-01-04T09:14:09.332Z,100796.91
2023-01-04T09:16:40.389Z,100796.94
2023-01-04T09:19:07.786Z,100800.44
2023-01-04T09:21:34.689Z,100808.41
2023-01-04T09:24:01.587Z,100804.88
2023-01-04T09:26:28.349Z,100799.59
2023-01-04T09:28:56.474Z,100793.41
2023-01-04T09:31:28.371Z,100793.41
2023-01-04T09:34:13.910Z,100773.06
2023-01-04T09:36:41.299Z,100776.59
2023-01-04T09:39:09.809Z,100766.88
2023-01-04T09:41:56.972Z,100766.00
2023-01-04T09:45:23.087Z,100759.81
2023-01-04T09:47:39.937Z,100755.41
2023-01-04T09:50:17.701Z,100746.56
2023-01-04T09:53:30.142Z,100757.16
2023-01-04T09:56:23.961Z,100737.72
2023-01-04T09:58:53.493Z,100737.72
2023-01-04T10:01:26.264Z,100733.28
2023-01-04T10:04:27.122Z,100735.06
2023-01-04T10:06:58.083Z,100727.97
2023-01-04T10:09:28.095Z,100719.16
2023-01-04T10:12:13.996Z,100715.59
2023-01-04T10:15:30.236Z,100701.47
2023-01-04T10:19:59.628Z,100704.09
2023-01-04T10:21:31.547Z,100697.06
2023-01-04T10:24:29.583Z,100693.50
2023-01-04T10:27:09.037Z,100695.28
2023-01-04T10:29:53.381Z,100688.19
2023-01-04T10:32:43.056Z,100689.91
2023-01-04T10:35:29.043Z,100686.38
2023-01-04T10:38:02.089Z,100682.84
2023-01-04T10:40:33.998Z,100683.72
2023-01-04T10:43:15.705Z,100684.56
2023-01-04T10:46:09.966Z,100676.63
2023-01-04T10:48:47.059Z,100689.84
2023-01-04T10:51:20.056Z,100678.38
2023-01-04T10:54:03.385Z,100670.38
2023-01-04T10:57:12.768Z,100673.00
2023-01-04T11:00:19.199Z,100666.81
2023-01-04T11:03:25.544Z,100665.91
2023-01-04T11:06:05.296Z,100663.28
2023-01-04T11:08:59.700Z,100664.13
2023-01-04T11:11:51.175Z,100655.28
2023-01-04T11:14:18.168Z,100645.56
2023-01-04T11:16:48.741Z,100655.25
2023-01-04T11:19:15.846Z,100650.00
2023-01-04T11:22:03.045Z,100648.19
2023-01-04T11:24:33.163Z,100641.13
2023-01-04T11:27:07.867Z,100631.31
2023-01-04T11:29:52.665Z,100618.94
2023-01-04T11:32:54.118Z,100617.19
2023-01-04T11:35:46.503Z,100623.34
2023-01-04T11:38:24.320Z,100610.94
2023-01-04T11:41:07.554Z,100625.06
2023-01-04T11:43:39.590Z,100622.41
2023-01-04T11:46:22.010Z,100617.06
2023-01-04T11:48:49.212Z,100611.72
2023-01-04T11:51:28.711Z,100605.50
2023-01-04T11:54:05.072Z,100598.41
2023-01-04T11:56:35.352Z,100584.22
2023-01-04T12:02:59.513Z,100580.69
2023-01-04T12:05:28.793Z,100603.66
2023-01-04T12:07:57.887Z,100594.81
2023-01-04T12:10:27.723Z,100580.59
2023-01-04T12:12:57.150Z,100570.88
2023-01-04T12:15:38.498Z,100570.81
2023-01-04T12:18:15.694Z,100573.47
2023-01-04T12:20:42.498Z,100568.16
2023-01-04T12:23:12.308Z,100565.47
2023-01-04T12:25:45.399Z,100566.31
2023-01-04T12:28:36.620Z,100569.84
2023-01-04T12:31:22.430Z,100559.22
2023-01-04T12:34:00.567Z,100555.69
2023-01-04T12:36:39.601Z,100561.88
2023-01-04T12:39:12.743Z,100560.09
2023-01-04T12:41:39.438Z,100554.81
2023-01-04T12:44:38.539Z,100546.78
2023-01-04T12:47:47.015Z,100541.47
2023-01-04T12:50:24.983Z,100543.25
2023-01-04T12:53:20.057Z,100534.41
2023-01-04T12:55:54.233Z,100534.34
2023-01-04T13:01:29.693Z,100536.06
2023-01-04T13:04:05.523Z,100532.53
2023-01-04T13:06:42.892Z,100531.59
2023-01-04T13:09:24.851Z,100524.50
2023-01-04T13:12:16.880Z,100526.28
2023-01-04T13:15:03.500Z,100520.97
2023-01-04T13:17:38.861Z,100520.91
2023-01-04T13:20:25.578Z,100515.59
2023-01-04T13:22:56.786Z,100507.63
2023-01-04T13:25:25.016Z,100508.50
2023-01-04T13:27:57.613Z,100512.91
2023-01-04T13:30:36.282Z,100504.03
2023-01-04T13:33:26.838Z,100492.47
2023-01-04T13:36:07.944Z,100505.75
2023-01-04T13:38:35.504Z,100498.66
2023-01-04T13:41:22.179Z,100495.06
2023-01-04T13:44:11.935Z,100487.97
2023-01-04T13:46:43.118Z,100480.88
2023-01-04T13:49:14.220Z,100482.59
2023-01-04T13:51:41.079Z,100480.84
2023-01-04T13:54:23.176Z,100469.28
2023-01-04T13:56:55.442Z,100461.28
2023-01-04T13:59:22.797Z,100465.72
2023-01-04T14:01:50.311Z,100476.31
2023-01-04T14:04:29.887Z,100455.03
2023-01-04T14:07:01.055Z,100455.03
2023-01-04T14:09:45.859Z,100458.53
2023-01-04T14:12:23.969Z,100438.13
2023-01-04T14:15:00.551Z,100431.03
2023-01-04T14:17:48.617Z,100431.88
2023-01-04T14:20:23.921Z,100424.78
2023-01-04T14:22:54.192Z,100438.94
2023-01-04T14:25:48.295Z,100417.63
2023-01-04T14:28:30.159Z,100435.34
2023-01-04T14:31:14.743Z,100418.53
2023-01-04T14:33:45.382Z,100423.88
2023-01-04T14:36:32.001Z,100413.22
2023-01-04T14:39:06.670Z,100412.28
2023-01-04T14:41:35.827Z,100427.34
2023-01-04T14:44:16.335Z,100418.41
2023-01-04T14:46:47.049Z,100412.19
2023-01-04T14:49:15.158Z,100401.56
2023-01-04T14:52:01.220Z,100395.31
2023-01-04T14:54:30.148Z,100393.59
2023-01-04T14:56:58.851Z,100387.38
2023-01-04T14:59:26.613Z,100391.75
2023-01-04T15:01:55.997Z,100394.47
2023-01-04T15:04:24.600Z,100414.78
2023-01-04T15:06:59.906Z,100410.34
2023-01-04T15:09:27.622Z,100406.81
2023-01-04T15:11:54.746Z,100426.25
2023-01-04T15:14:22.132Z,100418.28
2023-01-04T15:16:49.474Z,100422.69
2023-01-04T15:19:16.598Z,100423.53
2023-01-04T15:21:43.440Z,100412.88
2023-01-04T15:24:10.723Z,100419.06
2023-01-04T15:26:39.488Z,100408.38
2023-01-04T15:29:06.815Z,100418.13
2023-01-04T15:31:39.004Z,100410.09
2023-01-04T15:34:07.507Z,100411.84
2023-01-04T15:36:38.306Z,100423.38
2023-01-04T15:39:05.379Z,100422.47
2023-01-04T15:41:50.527Z,100405.56
2023-01-04T15:44:17.388Z,100402.91
2023-01-04T15:46:44.213Z,100389.63
2023-01-04T15:49:16.834Z,100390.47
2023-01-04T15:51:44.455Z,100417.03
2023-01-04T15:54:11.313Z,100415.25
2023-01-04T15:56:38.271Z,100411.66
2023-01-04T15:59:05.055Z,100416.97
2023-01-04T16:01:31.982Z,100404.56
2023-01-04T16:03:58.885Z,100405.44
2023-01-04T16:06:26.652Z,100406.31
2023-01-04T16:08:53.447Z,100412.44
2023-01-04T16:11:22.826Z,100414.22
2023-01-04T16:13:52.121Z,100410.66
2023-01-04T16:16:22.038Z,100407.94
2023-01-04T16:18:51.536Z,100403.50
2023-01-04T16:21:23.410Z,100403.50
2023-01-04T16:24:03.879Z,100391.91
2023-01-04T16:26:33.934Z,100391.06
2023-01-04T16:29:00.867Z,100386.59
2023-01-04T16:31:33.903Z,100381.25
2023-01-04T16:34:00.851Z,100382.16
2023-01-04T16:36:27.703Z,100386.63
2023-01-04T16:38:54.478Z,100378.59
2023-01-04T16:41:22.204Z,100372.44
2023-01-04T16:43:52.674Z,100385.75
2023-01-04T16:46:25.784Z,100382.16
2023-01-04T16:49:05.824Z,100378.59
2023-01-04T16:51:35.133Z,100377.69
2023-01-04T16:54:05.202Z,100368.84
2023-01-04T16:56:34.957Z,100362.63
2023-01-04T16:59:02.235Z,100361.75
2023-01-04T17:01:32.054Z,100352.00
2023-01-04T17:04:02.578Z,100362.63
2023-01-04T17:06:32.154Z,100346.66
2023-01-04T17:09:00.118Z,100337.78
2023-01-04T17:14:16.492Z,100351.97
2023-01-04T17:16:43.899Z,100359.06
2023-01-04T17:19:10.719Z,100350.19
2023-01-04T17:21:37.505Z,100352.84
2023-01-04T17:24:04.468Z,100360.78
2023-01-04T17:26:32.687Z,100356.31
2023-01-04T17:29:01.542Z,100354.47
2023-01-04T17:31:35.738Z,100343.81
2023-01-04T17:34:03.150Z,100349.97
2023-01-04T17:36:29.939Z,100356.16
2023-01-04T17:39:00.427Z,100355.19
2023-01-04T17:41:29.395Z,100343.59
2023-01-04T17:44:02.830Z,100350.66
2023-01-04T17:46:33.626Z,100353.31
2023-01-04T17:49:22.803Z,100349.72
2023-01-04T17:51:50.954Z,100353.25
2023-01-04T17:54:20.773Z,100359.41
2023-01-04T17:56:47.545Z,100352.28
2023-01-04T17:59:14.301Z,100342.53
2023-01-04T18:01:41.236Z,100355.81
2023-01-04T18:04:09.018Z,100357.59
2023-01-04T18:06:37.075Z,100323.00
2023-01-04T18:09:06.505Z,100351.41
2023-01-04T18:11:33.794Z,100347.84
2023-01-04T18:14:02.924Z,100335.44
2023-01-04T18:16:32.934Z,100328.38
2023-01-04T18:19:00.768Z,100346.09
2023-01-04T18:21:32.816Z,100340.84
2023-01-04T18:29:37.441Z,100366.56
2023-01-04T18:32:04.619Z,100347.91
2023-01-04T18:34:31.460Z,100337.22
2023-01-04T18:36:58.270Z,100335.41
2023-01-04T18:39:25.093Z,100337.16
2023-01-04T18:41:51.836Z,100347.81
2023-01-04T18:44:35.281Z,100354.88
2023-01-04T18:47:03.620Z,100345.09
2023-01-04T18:49:30.698Z,100334.44
2023-01-04T18:51:57.595Z,100330.00
2023-01-04T18:54:24.407Z,100326.44
2023-01-04T18:56:55.732Z,100315.81
2023-01-04T18:59:28.477Z,100315.81
2023-01-04T19:02:00.711Z,100317.59
2023-01-04T19:04:29.941Z,100304.34
2023-01-04T19:06:56.748Z,100312.31
2023-01-04T19:09:23.962Z,100306.94
2023-01-04T19:11:50.898Z,100322.94
2023-01-04T19:14:18.136Z,100318.47
2023-01-04T19:16:45.079Z,100316.69
2023-01-04T19:19:11.977Z,100317.66
2023-01-04T19:21:38.910Z,100298.19
2023-01-04T19:24:05.794Z,100296.50
2023-01-04T19:26:32.585Z,100307.22
2023-01-04T19:28:59.344Z,100305.59
2023-01-04T19:31:26.125Z,100319.81
2023-01-04T19:33:53.142Z,100320.84
2023-01-04T19:36:20.082Z,100323.53
2023-01-04T19:38:46.866Z,100322.69
2023-01-04T19:41:31.013Z,100309.38
2023-01-04T19:44:02.269Z,100306.75
2023-01-04T19:46:29.148Z,100324.50
2023-01-04T19:48:56.222Z,100323.59
2023-01-04T19:51:24.131Z,100319.16
2023-01-04T19:53:51.906Z,100315.53
2023-01-04T19:56:18.707Z,100312.84
2023-01-04T19:58:45.717Z,100316.41
2023-01-04T20:01:18.876Z,100296.00
2023-01-04T20:03:45.929Z,100302.16
2023-01-04T20:06:14.346Z,100305.75
2023-01-04T20:08:41.882Z,100300.44
2023-01-04T20:11:09.485Z,100319.97
2023-01-04T20:13:37.015Z,100321.72
2023-01-04T20:16:05.042Z,100320.78
2023-01-04T20:18:32.488Z,100334.97
2023-01-04T20:20:59.576Z,100318.13
2023-01-04T20:23:26.402Z,100313.75
2023-01-04T20:25:54.659Z,100299.50
2023-01-04T20:28:24.287Z,100313.75
2023-01-04T20:31:03.453Z,100311.97
2023-01-04T20:33:30.951Z,100313.75
2023-01-04T20:35:58.281Z,100326.16
2023-01-04T20:38:25.086Z,100319.97
2023-01-04T20:40:51.914Z,100325.28
2023-01-04T20:43:33.481Z,100311.09
2023-01-04T20:46:13.399Z,100325.28
2023-01-04T20:48:41.313Z,100333.28
2023-01-04T20:51:15.077Z,100335.03
2023-01-04T20:53:42.512Z,100337.72
2023-01-04T20:56:25.049Z,100340.44
2023-01-04T20:58:52.577Z,100335.16
2023-01-04T21:01:21.109Z,100323.69
2023-01-04T21:03:48.190Z,100335.22
2023-01-04T21:06:17.498Z,100344.16
2023-01-04T21:08:44.692Z,100348.66
2023-01-04T21:11:13.036Z,100342.53
2023-01-04T21:13:40.108Z,100353.19
2023-01-04T21:16:07.406Z,100350.59
2023-01-04T21:18:34.339Z,100347.91
2023-01-04T21:21:09.890Z,100352.31
2023-01-04T21:23:38.146Z,100366.53
2023-01-04T21:26:11.024Z,100359.41
2023-01-04T21:28:37.813Z,100346.97
2023-01-04T21:31:21.462Z,100360.25
2023-01-04T21:33:48.582Z,100360.28
2023-01-04T21:36:25.332Z,100354.91
2023-01-04T21:38:54.832Z,100357.53
2023-01-04T21:41:26.135Z,100367.22
2023-01-04T21:43:55.560Z,100370.75
2023-01-04T21:46:23.543Z,100368.09
2023-01-04T21:48:58.251Z,100362.75
2023-01-04T21:51:27.238Z,100355.75
2023-01-04T21:53:54.790Z,100361.09
2023-01-04T21:56:23.646Z,100366.47
2023-01-04T21:58:50.777Z,100363.88
2023-01-04T22:01:21.756Z,100347.97
2023-01-04T22:03:49.040Z,100367.47
2023-01-04T22:06:16.357Z,100383.41
2023-01-04T22:08:43.835Z,100365.69
2023-01-04T22:11:11.272Z,100370.09
2023-01-04T22:13:38.210Z,100373.66
2023-01-04T22:16:12.033Z,100386.06
2023-01-04T22:18:39.160Z,100385.25
2023-01-04T22:21:13.491Z,100388.81
2023-01-04T22:23:40.279Z,100373.00
2023-01-04T22:26:07.231Z,100389.91
2023-01-04T22:28:37.020Z,100381.06
2023-01-04T22:31:12.819Z,100393.47
2023-01-04T22:33:40.630Z,100386.50
2023-01-04T22:36:21.762Z,100378.59
2023-01-04T22:38:51.079Z,100391.91
2023-01-04T22:41:21.080Z,100405.25
2023-01-04T22:43:48.554Z,100401.69
2023-01-04T22:46:17.980Z,100393.75
2023-01-04T22:48:45.567Z,100392.91
2023-01-04T22:51:15.576Z,100400.94
2023-01-04T22:53:42.803Z,100393.06
2023-01-04T22:56:22.421Z,100396.69
2023-01-04T22:58:54.577Z,100418.94
2023-01-04T23:01:25.072Z,100409.25
2023-01-04T23:03:52.412Z,100416.41
2023-01-04T23:06:20.389Z,100422.66
2023-01-04T23:08:48.464Z,100409.44
2023-01-04T23:11:18.537Z,100405.03
2023-01-04T23:13:45.713Z,100404.19
2023-01-04T23:16:15.569Z,100404.19
2023-01-04T23:18:42.678Z,100397.94
2023-01-04T23:21:09.872Z,100399.72
2023-01-04T23:23:36.728Z,100400.59
2023-01-04T23:26:24.527Z,100405.91
2023-01-04T23:28:51.694Z,100406.75
2023-01-04T23:31:22.889Z,100402.31
2023-01-04T23:33:56.631Z,100412.91
2023-01-04T23:36:33.891Z,100408.44
2023-01-04T23:39:03.723Z,100410.22
2023-01-04T23:41:47.716Z,100413.75
2023-01-04T23:44:25.811Z,100407.56
2023-01-04T23:46:59.825Z,100414.63
2023-01-04T23:49:30.282Z,100425.25
2023-01-04T23:51:57.534Z,100415.47
2023-01-04T23:54:24.402Z,100413.66
2023-01-04T23:56:51.662Z,100426.91
2023-01-04T23:59:18.693Z,100414.50
